Flight Track Log - Related Links

Times and Time Zones

All times are in EDT time to prevent confusion due to time zone crossing. See the N569SC flight status page for this flight to view local times or setup timezone preferences in your user account.

Time Position Orientation Groundspeed Altitude Reporting Facility
EDT Latitude Longitude Course Direction KTS MPH feet Rate Location/Type
Fri 11:01:27 AM 24.8175 -81.0389 339° North 447 514 5,000  Level Miami Center
Fri 11:02:27 AM 24.8878 -81.0711 337° Northwest 356 410 8,600 3,600 Climbing Miami Center
Fri 11:03:27 AM 24.9597 -81.1103 334° Northwest 313 360 12,200 3,450 Climbing Miami Center
Fri 11:04:27 AM 25.0161 -81.1831 311° West 294 338 15,500 2,950 Climbing Miami Center
Fri 11:05:27 AM 25.0817 -81.2244 330° Northwest 299 344 18,100 2,550 Climbing Miami Center
Fri 11:06:00 AM 25.2796 -81.2722 339° North  Level FlightAware Approximate
Fri 11:06:27 AM 25.1667 -81.2458 347° North 299 344 20,600  Level Miami Center
Fri 11:07:27 AM 25.2558 -81.2697 346° North 309 356 22,700 2,050 Climbing Miami Center
Fri 11:08:27 AM 25.3489 -81.2939 347° North 331 381 24,700 1,850 Climbing Miami Center
Fri 11:09:27 AM 25.4506 -81.3206 347° North 353 406 26,400 1,700 Climbing Miami Center
Fri 11:10:27 AM 25.5542 -81.3475 347° North 369 425 28,100 1,700 Climbing Miami Center
Fri 11:11:27 AM 25.6639 -81.3767 347° North 384 442 29,800 1,700 Climbing Miami Center
Fri 11:12:27 AM 25.7758 -81.4086 346° North 384 442 31,500 1,800 Climbing Miami Center
Fri 11:13:27 AM 25.8814 -81.4358 347° North 384 442 33,400 1,900 Climbing Miami Center
Fri 11:14:27 AM 25.9850 -81.4653 346° North 390 449 35,300 1,900 Climbing Miami Center
Fri 11:15:27 AM 26.0844 -81.4897 348° North 378 435 37,200 1,900 Climbing Miami Center
Fri 11:16:27 AM 26.1794 -81.5167 346° North 363 418 39,100 1,600 Climbing Miami Center
Fri 11:17:27 AM 26.2686 -81.5408 346° North 344 396 40,400 1,000 Climbing Miami Center
Fri 11:18:27 AM 26.3556 -81.5653 346° North 338 389 41,100 700 Climbing Miami Center
Fri 11:19:27 AM 26.4528 -81.5900 347° North 339 390 41,800 600 Climbing Miami Center
Fri 11:20:27 AM 26.5458 -81.6169 345° North 339 390 42,300 450 Climbing Miami Center
Fri 11:21:27 AM 26.6453 -81.6442 346° North 353 406 42,700 350 Climbing Miami Center
Fri 11:22:27 AM 26.7342 -81.6711 345° North 363 418 43,000 150 Climbing Miami Center
Fri 11:23:27 AM 26.8394 -81.6986 347° North 368 423 43,000  Level Miami Center
Fri 11:24:27 AM 26.9431 -81.7264 347° North 379 436 43,000  Level Miami Center
Fri 11:25:27 AM 27.0611 -81.7569 347° North 389 448 43,000  Level Miami Center
Fri 11:26:27 AM 27.1664 -81.7847 347° North 394 453 43,000  Level Miami Center
Fri 11:27:27 AM 27.2719 -81.8147 346° North 394 453 43,000  Level Miami Center
Fri 11:28:27 AM 27.3669 -81.8422 346° North 394 453 43,000  Level Miami Center
Fri 11:29:27 AM 27.4703 -81.8703 346° North 389 448 43,000  Level Miami Center
Fri 11:31:52 AM 27.7228 -81.9433 346° North 384 442 43,000  Level Jacksonville Center
Fri 11:32:52 AM 27.8358 -81.9728 347° North 378 435 43,000  Level Jacksonville Center
Fri 11:33:52 AM 27.9403 -82.0000 347° North 384 442 43,000  Level Jacksonville Center
Fri 11:34:52 AM 28.0283 -82.0508 333° Northwest 365 420 43,000  Level Jacksonville Center
Fri 11:35:52 AM 28.1100 -82.1208 323° Northwest 356 410 43,000  Level Jacksonville Center
Fri 11:36:52 AM 28.1856 -82.1908 321° Northwest 356 410 43,000  Level Jacksonville Center
Fri 11:37:52 AM 28.2631 -82.2611 321° Northwest 356 410 43,000 100 Level Jacksonville Center
Fri 11:38:52 AM 28.3489 -82.3217 328° Northwest 356 410 43,200 400 Climbing Jacksonville Center
Fri 11:39:52 AM 28.4411 -82.3661 337° Northwest 356 410 43,800 500 Climbing Jacksonville Center
Fri 11:40:52 AM 28.5331 -82.4128 336° Northwest 356 410 44,200 400 Climbing Jacksonville Center
Fri 11:41:52 AM 28.6272 -82.4622 335° Northwest 363 418 44,600 400 Climbing Jacksonville Center
Fri 11:42:52 AM 28.7044 -82.4997 337° Northwest 354 407 45,000 200 Climbing Jacksonville Center
Fri 11:43:52 AM 28.7986 -82.5514 334° Northwest 354 407 45,000  Level Jacksonville Center
Fri 11:44:52 AM 28.8925 -82.5986 336° Northwest 359 413 45,000  Level Jacksonville Center
Fri 11:45:52 AM 28.9867 -82.6458 336° Northwest 364 419 45,000  Level Jacksonville Center
Fri 11:46:52 AM 29.0786 -82.6953 335° Northwest 364 419 45,000  Level Jacksonville Center
Fri 11:47:52 AM 29.1703 -82.7428 336° Northwest 364 419 45,000  Level Jacksonville Center
Fri 11:48:52 AM 29.2603 -82.7903 335° Northwest 364 419 45,000  Level Jacksonville Center
Fri 11:49:52 AM 29.3519 -82.8378 336° Northwest 364 419 45,000  Level Jacksonville Center
Fri 11:50:52 AM 29.4419 -82.8856 335° Northwest 364 419 45,000  Level Jacksonville Center
Fri 11:51:52 AM 29.5419 -82.9403 335° Northwest 353 406 45,000  Level Jacksonville Center
Fri 11:52:52 AM 29.6339 -82.9881 336° Northwest 363 418 45,000  Level Jacksonville Center
Fri 11:53:52 AM 29.7258 -83.0361 336° Northwest 363 418 45,000  Level Jacksonville Center
Fri 11:54:52 AM 29.8175 -83.0842 336° Northwest 363 418 45,000  Level Jacksonville Center
Fri 11:56:00 AM 29.9250 -83.1340 338° Northwest  Level FlightAware Approximate
Fri 11:56:52 AM 29.9989 -83.1803 338° Northwest 358 412 45,000  Level Jacksonville Center
Fri 11:57:52 AM 30.0908 -83.2261 337° Northwest 363 418 45,000  Level Jacksonville Center
Fri 11:58:52 AM 30.1803 -83.2747 335° Northwest 357 411 45,000  Level Jacksonville Center
Fri 11:59:52 AM 30.2678 -83.3206 336° Northwest 357 411 45,000  Level Jacksonville Center
Fri 12:00:52 PM 30.3575 -83.3669 336° Northwest 357 411 45,000  Level Jacksonville Center
Fri 12:01:52 PM 30.4492 -83.4156 335° Northwest 357 411 45,000  Level Jacksonville Center
Fri 12:02:52 PM 30.5386 -83.4667 334° Northwest 357 411 45,000  Level Jacksonville Center
Fri 12:03:52 PM 30.6283 -83.5131 336° Northwest 357 411 45,000  Level Jacksonville Center
Fri 12:04:52 PM 30.7178 -83.5619 335° Northwest 357 411 45,000  Level Jacksonville Center
Fri 12:05:52 PM 30.7928 -83.6083 332° Northwest 352 405 45,000  Level Jacksonville Center
Fri 12:06:52 PM 30.8822 -83.6550 336° Northwest 352 405 45,000  Level Jacksonville Center
Fri 12:07:52 PM 30.9697 -83.7042 334° Northwest 347 399 45,000  Level Jacksonville Center
Fri 12:08:52 PM 31.0569 -83.7558 333° Northwest 347 399 45,000  Level Jacksonville Center
Fri 12:09:52 PM 31.1464 -83.8053 335° Northwest 347 399 45,000  Level Jacksonville Center
Fri 12:10:52 PM 31.2381 -83.8547 335° Northwest 347 399 45,000  Level Jacksonville Center
Fri 12:11:52 PM 31.3253 -83.9042 334° Northwest 347 399 45,000  Level Jacksonville Center
Fri 12:13:41 PM 31.4878 -83.9975 334° Northwest 346 398 45,000  Level Atlanta Center
Fri 12:14:41 PM 31.5756 -84.0511 333° Northwest 346 398 45,000  Level Atlanta Center
Fri 12:16:00 PM 31.7030 -84.0946 334° Northwest  Level FlightAware Approximate
Fri 12:16:41 PM 31.7633 -84.1561 334° Northwest 346 398 45,000  Level Atlanta Center
Fri 12:17:41 PM 31.8531 -84.2053 335° Northwest 346 398 45,000  Level Atlanta Center
Fri 12:18:41 PM 31.9406 -84.2567 334° Northwest 346 398 45,000  Level Atlanta Center
Fri 12:19:41 PM 32.0303 -84.3058 335° Northwest 346 398 45,000  Level Atlanta Center
Fri 12:20:41 PM 32.1197 -84.3553 335° Northwest 346 398 45,000  Level Atlanta Center
Fri 12:21:41 PM 32.2072 -84.4069 333° Northwest 346 398 45,000  Level Atlanta Center
Fri 12:22:41 PM 32.2989 -84.4592 334° Northwest 346 398 45,000  Level Atlanta Center
Fri 12:23:41 PM 32.3906 -84.5136 333° Northwest 352 405 45,000  Level Atlanta Center
Fri 12:24:41 PM 32.4822 -84.5658 334° Northwest 352 405 45,000  Level Atlanta Center
Fri 12:25:41 PM 32.5739 -84.6181 334° Northwest 358 412 45,000  Level Atlanta Center
Fri 12:26:41 PM 32.6633 -84.6731 333° Northwest 363 418 45,000  Level Atlanta Center
Fri 12:27:41 PM 32.7569 -84.7231 336° Northwest 363 418 45,000  Level Atlanta Center
Fri 12:28:41 PM 32.8381 -84.7731 333° Northwest 363 418 45,000  Level Atlanta Center
Fri 12:29:41 PM 32.9275 -84.8258 334° Northwest 363 418 45,000  Level Atlanta Center
Fri 12:30:41 PM 33.0211 -84.8786 335° Northwest 363 418 45,000  Level Atlanta Center
Fri 12:31:41 PM 33.1128 -84.9317 334° Northwest 363 418 45,000  Level Atlanta Center
Fri 12:32:41 PM 33.2019 -84.9872 332° Northwest 363 418 45,000  Level Atlanta Center
Fri 12:33:41 PM 33.3039 -85.0456 334° Northwest 363 418 45,000  Level Atlanta Center
Fri 12:34:41 PM 33.3953 -85.1014 333° Northwest 363 418 45,000  Level Atlanta Center
Fri 12:35:41 PM 33.4867 -85.1547 334° Northwest 363 418 45,000  Level Atlanta Center
Fri 12:36:41 PM 33.5778 -85.2108 333° Northwest 363 418 45,000  Level Atlanta Center
Fri 12:37:41 PM 33.6714 -85.2669 333° Northwest 363 418 45,000  Level Atlanta Center
Fri 12:38:41 PM 33.7647 -85.3181 336° Northwest 363 418 45,000  Level Atlanta Center
Fri 12:39:41 PM 33.8581 -85.3747 333° Northwest 363 418 45,000  Level Atlanta Center
Fri 12:40:41 PM 33.9408 -85.4236 334° Northwest 363 418 45,000  Level Atlanta Center
Fri 12:41:41 PM 34.0322 -85.4775 334° Northwest 363 418 45,000  Level Atlanta Center
Fri 12:42:41 PM 34.1275 -85.5369 333° Northwest 368 423 45,000  Level Atlanta Center
Fri 12:43:41 PM 34.2208 -85.5914 334° Northwest 368 423 45,000  Level Atlanta Center
Fri 12:44:41 PM 34.3139 -85.6483 333° Northwest 363 418 45,000  Level Atlanta Center
Fri 12:45:41 PM 34.4050 -85.7031 334° Northwest 363 418 45,000  Level Atlanta Center
Fri 12:46:41 PM 34.4981 -85.7628 332° Northwest 363 418 45,000  Level Atlanta Center
Fri 12:47:41 PM 34.5911 -85.8178 334° Northwest 363 418 45,000  Level Atlanta Center
Fri 12:48:41 PM 34.6864 -85.8703 336° Northwest 363 418 45,000  Level Atlanta Center
Fri 12:49:41 PM 34.7939 -85.9333 334° Northwest 376 433 45,000  Level Atlanta Center
Fri 12:50:41 PM 34.8850 -85.9911 333° Northwest 376 433 45,000  Level Atlanta Center
Fri 12:52:21 PM 35.0361 -86.0889 332° Northwest 372 428 45,000  Level Memphis Center
Fri 12:53:21 PM 35.1297 -86.1475 333° Northwest 372 428 45,000  Level Memphis Center
Fri 12:54:21 PM 35.2044 -86.1919 334° Northwest 372 428 45,000  Level Memphis Center
Fri 12:55:21 PM 35.3089 -86.2581 333° Northwest 378 435 45,000  Level Memphis Center
Fri 12:56:21 PM 35.4111 -86.3244 332° Northwest 385 443 45,000  Level Memphis Center
Fri 12:57:21 PM 35.5089 -86.3833 334° Northwest 385 443 45,000  Level Memphis Center
Fri 12:58:21 PM 35.6047 -86.4453 332° Northwest 385 443 45,000  Level Memphis Center
Fri 12:59:21 PM 35.7006 -86.5044 333° Northwest 385 443 45,000  Level Memphis Center
Fri 01:00:21 PM 35.7961 -86.5667 332° Northwest 385 443 45,000  Level Memphis Center
Fri 01:01:21 PM 35.8939 -86.6289 333° Northwest 385 443 45,000  Level Memphis Center
Fri 01:02:21 PM 35.9917 -86.6883 334° Northwest 385 443 45,000  Level Memphis Center
Fri 01:03:21 PM 36.0872 -86.7508 332° Northwest 385 443 45,000  Level Memphis Center
Fri 01:04:21 PM 36.1850 -86.8108 334° Northwest 385 443 45,000  Level Memphis Center
Fri 01:05:21 PM 36.2681 -86.8692 330° Northwest 385 443 45,000  Level Memphis Center
Fri 01:06:21 PM 36.3656 -86.9292 334° Northwest 385 443 45,000  Level Memphis Center
Fri 01:07:21 PM 36.4822 -87.0017 333° Northwest 404 465 45,000  Level Memphis Center
Fri 01:08:21 PM 36.5733 -87.0575 334° Northwest 393 452 45,000  Level Memphis Center
Fri 01:09:21 PM 36.6644 -87.1183 332° Northwest 381 438 45,000  Level Memphis Center
Fri 01:10:21 PM 36.7578 -87.1794 332° Northwest 386 444 45,000 -200 Level Memphis Center
Fri 01:11:21 PM 36.8508 -87.2378 333° Northwest 380 437 44,600 -1,300 Descending Memphis Center
Fri 01:12:21 PM 36.9464 -87.3017 332° Northwest 380 437 42,400 -2,000 Descending Memphis Center
Fri 01:13:21 PM 37.0331 -87.3581 333° Northwest 387 445 40,600 -2,199 Descending Memphis Center
Fri 01:15:32 PM 37.2319 -87.4869 333° Northwest 359 413 35,400 -2,031 Descending Kansas City Center
Fri 01:16:36 PM 37.3225 -87.5475 332° Northwest 363 418 34,000 -672 Descending Kansas City Center
Fri 01:17:37 PM 37.4139 -87.6086 332° Northwest 367 422 34,000 -590 Level Kansas City Center
Fri 01:18:38 PM 37.5078 -87.6700 333° Northwest 373 429 32,800 -1,644 Descending Kansas City Center
Fri 01:19:52 PM 37.6225 -87.7467 332° Northwest 378 435 30,300 -2,162 Descending Indianapolis Center
Fri 01:20:54 PM 37.7164 -87.8094 332° Northwest 378 435 27,900 -2,274 Descending Indianapolis Center
Fri 01:21:56 PM 37.8061 -87.8706 332° Northwest 376 433 25,600 -2,250 Descending Indianapolis Center
Fri 01:22:46 PM 37.8819 -87.9214 332° Northwest 377 434 23,700 -2,324 Descending Kansas City Center
Fri 01:23:47 PM 37.9739 -87.9825 332° Northwest 373 429 21,300 -2,496 Descending Kansas City Center
Fri 01:24:51 PM 38.0833 -88.0564 332° Northwest 370 426 18,500 -2,323 Descending Kansas City Center
Fri 01:25:51 PM 38.1694 -88.1139 332° Northwest 355 409 16,500 -2,164 Descending Kansas City Center
Fri 01:26:53 PM 38.2536 -88.1719 332° Northwest 346 398 14,100 -2,238 Descending Kansas City Center
Fri 01:27:57 PM 38.3383 -88.2289 332° Northwest 344 396 11,800 -2,238 Descending Kansas City Center
Fri 01:28:59 PM 38.4150 -88.2814 332° Northwest 324 373 9,400 -2,262 Descending Kansas City Center
Fri 01:29:59 PM 38.4889 -88.3314 332° Northwest 308 354 7,200 -2,200 Descending Kansas City Center

Login

Don't have an account? Register now (free) for customized features, flight alerts, and more!